createdAt,value
2022-12-31T00:00:02.396Z,45.17
2022-12-31T00:01:08.398Z,44.99
2022-12-31T00:02:11.113Z,44.79
2022-12-31T00:03:13.952Z,44.47
2022-12-31T00:04:16.681Z,44.27
2022-12-31T00:05:19.347Z,44.02
2022-12-31T00:06:32.479Z,43.94
2022-12-31T00:08:38.592Z,43.59
2022-12-31T00:09:41.925Z,43.48
2022-12-31T00:10:44.618Z,43.41
2022-12-31T00:11:47.119Z,43.17
2022-12-31T00:12:49.548Z,42.99
2022-12-31T00:13:52.385Z,43.03
2022-12-31T00:14:54.891Z,42.84
2022-12-31T00:17:18.410Z,42.75
2022-12-31T00:18:20.595Z,42.64
2022-12-31T00:19:23.524Z,42.54
2022-12-31T00:20:27.971Z,42.53
2022-12-31T00:21:32.223Z,42.44
2022-12-31T00:22:34.682Z,42.37
2022-12-31T00:23:36.983Z,42.39
2022-12-31T00:24:39.856Z,42.22
2022-12-31T00:25:42.239Z,42.16
2022-12-31T00:26:46.203Z,42.18
2022-12-31T00:27:49.410Z,42.18
2022-12-31T00:28:52.812Z,42.00
2022-12-31T00:29:59.467Z,41.91
2022-12-31T00:32:24.322Z,41.89
2022-12-31T00:33:26.612Z,41.81
2022-12-31T00:34:29.015Z,41.65
2022-12-31T00:35:34.263Z,41.69
2022-12-31T00:36:39.082Z,41.79
2022-12-31T00:37:41.447Z,41.68
2022-12-31T00:38:46.165Z,41.61
2022-12-31T00:39:48.566Z,41.58
2022-12-31T00:40:50.964Z,41.50
2022-12-31T00:41:53.252Z,41.45
2022-12-31T00:42:55.844Z,41.44
2022-12-31T00:43:58.882Z,41.38
2022-12-31T00:45:01.775Z,41.32
2022-12-31T00:46:06.360Z,41.29
2022-12-31T00:47:09.218Z,41.26
2022-12-31T00:48:11.533Z,41.25
2022-12-31T00:49:14.153Z,41.21
2022-12-31T00:50:18.286Z,41.13
2022-12-31T00:51:22.670Z,41.13
2022-12-31T00:52:25.114Z,41.03
2022-12-31T00:53:27.936Z,41.08
2022-12-31T00:54:30.493Z,41.01
2022-12-31T00:55:32.678Z,41.03
2022-12-31T00:56:35.393Z,41.02
2022-12-31T00:57:38.034Z,40.77
2022-12-31T00:58:40.323Z,41.28
2022-12-31T00:59:43.165Z,41.28
2022-12-31T01:00:45.697Z,40.88
2022-12-31T01:01:51.343Z,40.88
2022-12-31T01:02:53.902Z,40.85
2022-12-31T01:05:17.069Z,40.81
2022-12-31T01:06:20.452Z,40.80
2022-12-31T01:07:23.429Z,40.84
2022-12-31T01:08:25.941Z,40.83
2022-12-31T01:09:28.970Z,40.75
2022-12-31T01:10:50.950Z,40.72
2022-12-31T01:11:53.710Z,40.69
2022-12-31T01:12:56.125Z,40.70
2022-12-31T01:14:07.812Z,40.68
2022-12-31T01:15:10.695Z,40.74
2022-12-31T01:16:14.968Z,40.75
2022-12-31T01:17:18.802Z,40.67
2022-12-31T01:18:22.681Z,40.63
2022-12-31T01:19:27.055Z,40.58
2022-12-31T01:20:29.797Z,40.63
2022-12-31T01:21:32.385Z,40.70
2022-12-31T01:22:34.564Z,40.77
2022-12-31T01:23:36.866Z,40.89
2022-12-31T01:24:41.269Z,41.00
2022-12-31T01:25:44.566Z,41.11
2022-12-31T01:26:47.270Z,41.35
2022-12-31T01:27:49.564Z,41.44
2022-12-31T01:28:51.856Z,41.60
2022-12-31T01:29:54.145Z,41.73
2022-12-31T01:30:57.354Z,41.83
2022-12-31T01:31:59.776Z,41.93
2022-12-31T01:33:02.394Z,42.13
2022-12-31T01:34:07.355Z,42.18
2022-12-31T01:35:09.881Z,42.23
2022-12-31T01:37:28.151Z,42.55
2022-12-31T01:38:30.742Z,42.66
2022-12-31T01:39:32.932Z,42.73
2022-12-31T01:41:50.376Z,42.91
2022-12-31T01:42:56.171Z,42.95
2022-12-31T01:45:16.876Z,43.03
2022-12-31T01:46:38.347Z,43.07
2022-12-31T01:47:47.201Z,43.08
2022-12-31T01:48:51.412Z,43.12
2022-12-31T01:51:10.611Z,43.27
2022-12-31T01:53:28.340Z,43.39
2022-12-31T01:54:31.655Z,43.42
2022-12-31T01:56:52.267Z,43.61
2022-12-31T01:57:58.364Z,43.59
2022-12-31T01:59:01.041Z,43.66
2022-12-31T02:00:04.979Z,43.66
2022-12-31T02:01:08.134Z,43.72
2022-12-31T02:02:11.607Z,43.77
2022-12-31T02:03:14.119Z,43.53
2022-12-31T02:04:16.448Z,43.53
2022-12-31T02:06:42.651Z,43.83
2022-12-31T02:07:44.985Z,43.90
2022-12-31T02:08:47.924Z,43.89
2022-12-31T02:09:51.368Z,43.99
2022-12-31T02:10:53.981Z,44.00
2022-12-31T02:11:56.887Z,44.00
2022-12-31T02:13:00.086Z,44.00
2022-12-31T02:14:06.077Z,44.12
2022-12-31T02:15:09.384Z,44.12
2022-12-31T02:17:33.798Z,44.16
2022-12-31T02:20:27.865Z,44.23
2022-12-31T02:21:36.771Z,44.27
2022-12-31T02:23:11.651Z,44.26
2022-12-31T02:24:33.336Z,44.31
2022-12-31T02:27:07.113Z,44.22
2022-12-31T02:29:52.018Z,44.22
2022-12-31T02:30:57.855Z,44.22
2022-12-31T02:32:03.553Z,44.22
2022-12-31T02:34:54.779Z,44.22
2022-12-31T02:36:02.690Z,44.22
2022-12-31T02:37:07.856Z,44.24
2022-12-31T02:38:13.760Z,44.28
2022-12-31T02:39:16.408Z,44.26
2022-12-31T02:40:21.320Z,44.29
2022-12-31T02:41:42.694Z,44.31
2022-12-31T02:42:48.676Z,44.30
2022-12-31T02:43:51.505Z,44.29
2022-12-31T02:44:54.001Z,44.31
2022-12-31T02:46:17.904Z,44.34
2022-12-31T02:48:42.737Z,44.33
2022-12-31T02:50:23.856Z,44.37
2022-12-31T02:51:46.991Z,44.38
2022-12-31T02:52:56.124Z,44.38
2022-12-31T02:54:11.984Z,44.44
2022-12-31T02:57:04.193Z,44.51
2022-12-31T02:58:16.306Z,44.54
2022-12-31T02:59:46.154Z,44.57
2022-12-31T03:01:09.838Z,44.62
2022-12-31T03:02:15.237Z,44.62
2022-12-31T03:03:20.136Z,44.64
2022-12-31T03:04:31.703Z,44.68
2022-12-31T03:05:37.682Z,44.73
2022-12-31T03:06:40.643Z,44.73
2022-12-31T03:07:43.203Z,44.77
2022-12-31T03:09:04.062Z,44.75
2022-12-31T03:10:09.386Z,44.78
2022-12-31T03:11:13.580Z,44.92
2022-12-31T03:12:35.691Z,45.13
2022-12-31T03:13:37.946Z,45.20
2022-12-31T03:14:41.316Z,45.26
2022-12-31T03:15:44.333Z,45.22
2022-12-31T03:16:48.503Z,45.25
2022-12-31T03:18:04.290Z,45.24
2022-12-31T03:19:25.727Z,45.30
2022-12-31T03:20:54.927Z,45.34
2022-12-31T03:22:15.790Z,45.35
2022-12-31T03:23:27.415Z,45.48
2022-12-31T03:24:49.248Z,45.45
2022-12-31T03:25:52.705Z,45.44
2022-12-31T03:26:55.162Z,45.47
2022-12-31T03:27:57.363Z,45.53
2022-12-31T03:29:01.095Z,45.58
2022-12-31T03:30:04.777Z,45.60
2022-12-31T03:31:07.407Z,45.66
2022-12-31T03:32:11.288Z,45.66
2022-12-31T03:33:14.487Z,45.69
2022-12-31T03:34:16.782Z,45.74
2022-12-31T03:35:20.031Z,45.75
2022-12-31T03:36:22.477Z,45.67
2022-12-31T03:37:24.862Z,45.72
2022-12-31T03:38:27.174Z,45.72
2022-12-31T03:39:30.561Z,45.74
2022-12-31T03:40:35.552Z,45.74
2022-12-31T03:41:37.935Z,45.70
2022-12-31T03:42:41.809Z,45.76
2022-12-31T03:43:45.139Z,45.76
2022-12-31T03:44:48.124Z,45.77
2022-12-31T03:45:52.259Z,45.84
2022-12-31T03:46:54.759Z,45.82
2022-12-31T03:47:59.087Z,45.82
2022-12-31T03:49:01.528Z,45.85
2022-12-31T03:50:05.470Z,45.79
2022-12-31T03:51:08.324Z,45.78
2022-12-31T03:52:11.301Z,45.85
2022-12-31T03:53:13.716Z,45.83
2022-12-31T03:54:16.101Z,45.79
2022-12-31T03:55:18.803Z,45.69
2022-12-31T03:56:21.670Z,45.69
2022-12-31T03:57:25.089Z,45.66
2022-12-31T03:58:27.816Z,45.50
2022-12-31T03:59:32.116Z,45.50
2022-12-31T04:00:35.078Z,45.58
2022-12-31T04:01:38.061Z,45.56
2022-12-31T04:02:41.123Z,45.56
2022-12-31T04:03:45.054Z,45.57
2022-12-31T04:04:48.425Z,45.55
2022-12-31T04:07:06.701Z,45.58
2022-12-31T04:08:08.872Z,45.61
2022-12-31T04:09:11.228Z,45.60
2022-12-31T04:10:16.215Z,45.60
2022-12-31T04:11:21.219Z,45.61
2022-12-31T04:12:24.401Z,45.61
2022-12-31T04:13:26.744Z,45.62
2022-12-31T04:14:29.258Z,45.57
2022-12-31T04:15:31.693Z,45.63
2022-12-31T04:16:34.978Z,45.70
2022-12-31T04:17:37.321Z,45.70
2022-12-31T04:18:39.616Z,45.78
2022-12-31T04:19:42.522Z,45.77
2022-12-31T04:20:46.687Z,45.79
2022-12-31T04:21:48.978Z,45.82
2022-12-31T04:22:52.201Z,45.82
2022-12-31T04:23:54.938Z,45.84
2022-12-31T04:24:57.878Z,45.83
2022-12-31T04:26:01.786Z,45.84
2022-12-31T04:27:08.080Z,45.84
2022-12-31T04:28:10.688Z,45.84
2022-12-31T04:29:13.960Z,45.85
2022-12-31T04:30:16.516Z,45.82
2022-12-31T04:31:18.950Z,45.88
2022-12-31T04:32:21.484Z,45.88
2022-12-31T04:33:24.311Z,45.89
2022-12-31T04:34:26.665Z,45.89
2022-12-31T04:35:30.575Z,45.88
2022-12-31T04:36:33.227Z,45.87
2022-12-31T04:37:36.349Z,45.90
2022-12-31T04:38:38.700Z,45.89
2022-12-31T04:39:41.045Z,45.84
2022-12-31T04:41:04.843Z,45.86
2022-12-31T04:42:08.667Z,45.88
2022-12-31T04:43:11.392Z,45.88
2022-12-31T04:44:13.581Z,45.88
2022-12-31T04:45:16.139Z,45.88
2022-12-31T04:46:20.505Z,45.95
2022-12-31T04:47:24.031Z,45.94
2022-12-31T04:48:27.072Z,45.94
2022-12-31T04:49:30.055Z,45.95
2022-12-31T04:50:33.668Z,45.99
2022-12-31T04:51:36.275Z,46.00
2022-12-31T04:52:42.865Z,46.07
2022-12-31T04:53:43.394Z,46.08
2022-12-31T04:54:46.821Z,46.07
2022-12-31T04:55:49.283Z,46.12
2022-12-31T04:56:51.808Z,46.14
2022-12-31T04:57:54.211Z,46.17
2022-12-31T04:58:57.287Z,46.14
2022-12-31T04:59:59.702Z,46.16
2022-12-31T05:01:02.289Z,46.12
2022-12-31T05:02:05.017Z,45.93
2022-12-31T05:03:08.460Z,45.93
2022-12-31T05:04:10.960Z,46.18
2022-12-31T05:05:13.941Z,46.18
2022-12-31T05:06:18.804Z,46.19
2022-12-31T05:07:21.339Z,46.20
2022-12-31T05:08:24.574Z,46.17
2022-12-31T05:09:27.738Z,46.17
2022-12-31T05:10:30.774Z,46.19
2022-12-31T05:11:35.540Z,46.24
2022-12-31T05:12:38.707Z,46.22
2022-12-31T05:13:42.349Z,46.20
2022-12-31T05:14:45.687Z,46.25
2022-12-31T05:15:48.461Z,46.23
2022-12-31T05:16:51.508Z,46.30
2022-12-31T05:17:54.492Z,46.28
2022-12-31T05:18:56.939Z,46.25
2022-12-31T05:19:59.336Z,46.27
2022-12-31T05:21:02.227Z,46.30
2022-12-31T05:22:24.368Z,46.39
2022-12-31T05:23:26.867Z,46.42
2022-12-31T05:24:29.536Z,46.46
2022-12-31T05:25:31.964Z,46.35
2022-12-31T05:26:34.490Z,46.44
2022-12-31T05:27:37.793Z,46.47
2022-12-31T05:28:40.865Z,46.52
2022-12-31T05:29:43.288Z,46.50
2022-12-31T05:30:48.235Z,46.78
2022-12-31T05:31:51.787Z,46.78
2022-12-31T05:32:55.182Z,46.41
2022-12-31T05:33:59.279Z,46.70
2022-12-31T05:35:01.753Z,46.70
2022-12-31T05:36:05.165Z,46.58
2022-12-31T05:37:08.573Z,46.65
2022-12-31T05:38:11.559Z,46.63
2022-12-31T05:39:15.845Z,46.65
2022-12-31T05:40:19.007Z,46.79
2022-12-31T05:41:21.360Z,46.77
2022-12-31T05:42:23.744Z,46.76
2022-12-31T05:43:26.915Z,46.76
2022-12-31T05:44:29.366Z,46.81
2022-12-31T05:45:31.659Z,46.79
2022-12-31T05:46:34.891Z,46.69
2022-12-31T05:47:37.817Z,46.61
2022-12-31T05:48:40.219Z,46.45
2022-12-31T05:49:43.447Z,46.25
2022-12-31T05:50:46.880Z,46.08
2022-12-31T05:51:51.217Z,45.86
2022-12-31T05:52:53.558Z,45.77
2022-12-31T05:53:58.477Z,45.59
2022-12-31T05:55:01.752Z,45.44
2022-12-31T05:56:06.133Z,45.31
2022-12-31T05:57:09.985Z,45.16
2022-12-31T05:58:13.298Z,45.01
2022-12-31T05:59:15.979Z,44.89
2022-12-31T06:00:19.238Z,44.77
2022-12-31T06:01:22.712Z,44.60
2022-12-31T06:02:25.738Z,44.53
2022-12-31T06:03:29.306Z,44.36
2022-12-31T06:04:31.973Z,44.25
2022-12-31T06:05:34.711Z,44.16
2022-12-31T06:06:39.251Z,44.09
2022-12-31T06:07:41.699Z,43.96
2022-12-31T06:08:44.254Z,43.90
2022-12-31T06:09:46.752Z,43.90
2022-12-31T06:10:49.812Z,43.74
2022-12-31T06:11:52.490Z,43.67
2022-12-31T06:12:54.855Z,43.57
2022-12-31T06:13:57.863Z,43.46
2022-12-31T06:15:00.215Z,43.52
2022-12-31T06:16:06.862Z,43.42
2022-12-31T06:17:09.401Z,43.31
2022-12-31T06:18:11.709Z,43.29
2022-12-31T06:19:14.640Z,43.22
2022-12-31T06:20:18.924Z,43.13
2022-12-31T06:21:22.191Z,43.07
2022-12-31T06:22:24.583Z,43.00
2022-12-31T06:23:26.901Z,42.94
2022-12-31T06:24:29.581Z,42.87
2022-12-31T06:25:34.412Z,42.91
2022-12-31T06:26:37.418Z,42.87
2022-12-31T06:27:40.247Z,42.96
2022-12-31T06:28:42.839Z,43.13
2022-12-31T06:29:46.993Z,43.25
2022-12-31T06:30:50.870Z,43.34
2022-12-31T06:31:53.895Z,43.42
2022-12-31T06:32:57.317Z,43.57
2022-12-31T06:33:59.970Z,43.71
2022-12-31T06:35:03.007Z,43.82
2022-12-31T06:36:09.290Z,43.93
2022-12-31T06:37:11.791Z,43.99
2022-12-31T06:38:16.102Z,44.15
2022-12-31T06:39:19.912Z,44.28
2022-12-31T06:40:22.406Z,44.35
2022-12-31T06:41:25.405Z,44.46
2022-12-31T06:42:31.340Z,44.57
2022-12-31T06:43:34.401Z,44.64
2022-12-31T06:44:36.809Z,44.67
2022-12-31T06:45:39.750Z,44.75
2022-12-31T06:46:43.907Z,44.73
2022-12-31T06:47:46.938Z,44.69
2022-12-31T06:48:52.082Z,44.72
2022-12-31T06:49:54.818Z,44.80
2022-12-31T06:50:59.392Z,44.80
2022-12-31T06:52:02.048Z,44.80
2022-12-31T06:53:04.387Z,44.86
2022-12-31T06:54:06.750Z,44.89
2022-12-31T06:55:10.642Z,44.88
2022-12-31T06:57:31.463Z,44.88
2022-12-31T06:58:35.165Z,44.88
2022-12-31T06:59:39.054Z,44.94
2022-12-31T07:00:44.987Z,44.96
2022-12-31T07:02:25.592Z,45.02
2022-12-31T07:03:46.593Z,45.14
2022-12-31T07:06:53.910Z,45.27
2022-12-31T07:08:12.117Z,45.38
2022-12-31T07:09:27.894Z,45.39
2022-12-31T07:10:50.128Z,45.47
2022-12-31T07:12:06.907Z,45.52
2022-12-31T07:13:47.995Z,45.52
2022-12-31T07:14:54.699Z,45.63
2022-12-31T07:16:20.817Z,45.69
2022-12-31T07:19:16.314Z,45.84
2022-12-31T07:20:21.445Z,45.87
2022-12-31T07:21:35.378Z,45.89
2022-12-31T07:22:39.100Z,45.99
2022-12-31T07:23:43.046Z,45.99
2022-12-31T07:24:46.334Z,46.04
2022-12-31T07:27:38.618Z,46.07
2022-12-31T07:29:00.120Z,46.02
2022-12-31T07:30:06.449Z,45.98
2022-12-31T07:31:19.646Z,45.98
2022-12-31T07:32:48.041Z,45.90
2022-12-31T07:33:59.920Z,45.96
2022-12-31T07:35:18.676Z,46.04
2022-12-31T07:36:28.852Z,46.10
2022-12-31T07:37:51.683Z,46.13
2022-12-31T07:40:31.647Z,46.21
2022-12-31T07:41:55.959Z,46.25
2022-12-31T07:44:50.718Z,46.33
2022-12-31T07:45:57.246Z,46.28
2022-12-31T07:47:01.068Z,45.98
2022-12-31T07:48:04.587Z,45.72
2022-12-31T07:50:26.150Z,45.02
2022-12-31T07:51:31.105Z,44.73
2022-12-31T07:52:34.853Z,44.54
2022-12-31T07:53:37.549Z,44.23
2022-12-31T07:54:39.869Z,43.99
2022-12-31T07:55:42.600Z,43.75
2022-12-31T07:56:45.418Z,43.47
2022-12-31T07:59:29.724Z,43.17
2022-12-31T08:00:33.971Z,43.00
2022-12-31T08:01:43.400Z,42.67
2022-12-31T08:03:16.320Z,42.35
2022-12-31T08:04:38.915Z,42.14
2022-12-31T08:07:32.327Z,41.79
2022-12-31T08:08:53.183Z,41.61
2022-12-31T08:10:12.532Z,41.52
2022-12-31T08:11:33.023Z,41.53
2022-12-31T08:12:35.883Z,41.41
2022-12-31T08:13:39.953Z,41.37
2022-12-31T08:14:44.989Z,41.28
2022-12-31T08:15:48.271Z,41.30
2022-12-31T08:16:52.967Z,41.23
2022-12-31T08:17:56.271Z,41.19
2022-12-31T08:19:00.274Z,41.10
2022-12-31T08:20:05.088Z,41.11
2022-12-31T08:21:37.261Z,41.05
2022-12-31T08:22:50.461Z,41.05
2022-12-31T08:24:16.383Z,41.14
2022-12-31T08:26:53.157Z,41.37
2022-12-31T08:29:18.230Z,41.57
2022-12-31T08:30:21.500Z,41.72
2022-12-31T08:31:54.125Z,41.85
2022-12-31T08:33:01.502Z,41.92
2022-12-31T08:34:25.034Z,42.11
2022-12-31T08:35:34.112Z,42.19
2022-12-31T08:36:44.063Z,42.34
2022-12-31T08:39:45.560Z,42.57
2022-12-31T08:42:54.839Z,42.77
2022-12-31T08:44:19.370Z,42.84
2022-12-31T08:46:41.942Z,43.12
2022-12-31T08:49:38.481Z,43.27
2022-12-31T08:50:42.969Z,43.29
2022-12-31T08:51:45.870Z,43.28
2022-12-31T08:52:48.941Z,43.32
2022-12-31T08:53:54.777Z,43.35
2022-12-31T08:54:58.554Z,43.34
2022-12-31T08:57:23.153Z,43.43
2022-12-31T08:58:44.107Z,43.40
2022-12-31T09:00:07.423Z,43.45
2022-12-31T09:01:09.953Z,43.50
2022-12-31T09:02:32.793Z,43.48
2022-12-31T09:03:51.017Z,43.53
2022-12-31T09:05:04.160Z,43.46
2022-12-31T09:06:27.271Z,43.54
2022-12-31T09:07:38.217Z,43.53
2022-12-31T09:09:02.343Z,43.53
2022-12-31T09:10:18.248Z,43.53
2022-12-31T09:11:47.278Z,43.49
2022-12-31T09:12:59.421Z,43.51
2022-12-31T09:14:29.309Z,43.72
2022-12-31T09:15:35.988Z,43.73
2022-12-31T09:16:42.513Z,43.69
2022-12-31T09:17:49.217Z,43.69
2022-12-31T09:18:51.671Z,43.77
2022-12-31T09:19:54.656Z,43.75
2022-12-31T09:20:58.147Z,43.72
2022-12-31T09:22:03.176Z,43.67
2022-12-31T09:23:06.258Z,43.68
2022-12-31T09:24:12.163Z,43.61
2022-12-31T09:25:16.904Z,43.56
2022-12-31T09:26:29.493Z,43.52
2022-12-31T09:27:37.729Z,43.50
2022-12-31T09:30:04.268Z,43.44
2022-12-31T09:31:10.276Z,43.45
2022-12-31T09:32:16.409Z,43.42
2022-12-31T09:33:49.584Z,43.41
2022-12-31T09:35:29.726Z,43.41
2022-12-31T09:37:56.835Z,43.33
2022-12-31T09:39:05.542Z,43.35
2022-12-31T09:40:32.869Z,43.36
2022-12-31T09:41:43.078Z,43.39
2022-12-31T09:44:34.427Z,43.50
2022-12-31T09:45:57.559Z,43.51
2022-12-31T09:47:21.677Z,43.54
2022-12-31T09:48:51.010Z,43.53
2022-12-31T09:50:13.221Z,43.54
2022-12-31T09:51:25.791Z,43.54
2022-12-31T09:52:52.000Z,43.58
2022-12-31T09:54:12.800Z,43.61
2022-12-31T09:55:48.123Z,43.61
2022-12-31T09:57:02.997Z,43.67
2022-12-31T09:58:27.460Z,43.66
2022-12-31T10:00:50.293Z,43.72
2022-12-31T10:02:16.646Z,43.75
2022-12-31T10:03:31.435Z,43.80
2022-12-31T10:04:41.284Z,43.82
2022-12-31T10:05:59.364Z,43.80
2022-12-31T10:07:25.322Z,43.71
2022-12-31T10:08:43.483Z,43.77
2022-12-31T10:10:06.326Z,43.77
2022-12-31T10:11:22.522Z,43.84
2022-12-31T10:12:48.969Z,43.88
2022-12-31T10:14:25.003Z,44.01
2022-12-31T10:16:04.530Z,44.02
2022-12-31T10:17:26.461Z,44.00
2022-12-31T10:19:00.649Z,44.12
2022-12-31T10:20:41.554Z,44.17
2022-12-31T10:23:46.159Z,44.34
2022-12-31T10:25:16.850Z,44.44
2022-12-31T10:26:29.272Z,44.50
2022-12-31T10:27:35.501Z,44.60
2022-12-31T10:28:58.244Z,44.74
2022-12-31T10:31:36.872Z,44.86
2022-12-31T10:32:46.088Z,44.92
2022-12-31T10:34:07.731Z,44.99
2022-12-31T10:37:12.587Z,45.10
2022-12-31T10:38:55.004Z,45.14
2022-12-31T10:40:11.019Z,45.20
2022-12-31T10:43:27.592Z,45.23
2022-12-31T10:44:57.880Z,45.31
2022-12-31T10:46:31.356Z,45.36
2022-12-31T10:47:45.670Z,45.46
2022-12-31T10:50:31.235Z,45.48
2022-12-31T10:53:21.445Z,45.58
2022-12-31T10:54:34.392Z,45.68
2022-12-31T10:56:15.226Z,45.69
2022-12-31T10:57:30.221Z,45.86
2022-12-31T10:58:39.380Z,45.80
2022-12-31T10:59:48.601Z,45.89
2022-12-31T11:01:20.827Z,46.07
2022-12-31T11:02:36.679Z,45.73
2022-12-31T11:03:49.407Z,45.47
2022-12-31T11:05:14.803Z,45.19
2022-12-31T11:06:30.545Z,44.61
2022-12-31T11:08:01.991Z,44.80
2022-12-31T11:09:35.587Z,44.72
2022-12-31T11:10:53.672Z,44.56
2022-12-31T11:12:20.569Z,44.52
2022-12-31T11:13:38.954Z,44.51
2022-12-31T11:14:48.626Z,44.46
2022-12-31T11:16:07.079Z,44.20
2022-12-31T11:17:34.820Z,44.32
2022-12-31T11:18:50.101Z,44.35
2022-12-31T11:20:29.722Z,44.39
2022-12-31T11:21:54.813Z,44.30
2022-12-31T11:23:03.965Z,44.25
2022-12-31T11:24:42.180Z,44.25
2022-12-31T11:27:36.771Z,43.88
2022-12-31T11:28:43.912Z,44.12
2022-12-31T11:29:51.115Z,43.67
2022-12-31T11:30:57.403Z,42.96
2022-12-31T11:32:24.799Z,43.36
2022-12-31T11:34:05.680Z,42.84
2022-12-31T11:35:17.703Z,43.47
2022-12-31T11:36:37.235Z,44.17
2022-12-31T11:39:59.559Z,44.51
2022-12-31T11:41:17.003Z,44.58
2022-12-31T11:42:41.952Z,43.95
2022-12-31T11:44:13.334Z,44.64
2022-12-31T11:45:28.325Z,46.01
2022-12-31T11:46:41.566Z,45.97
2022-12-31T11:48:29.130Z,46.15
2022-12-31T11:49:29.405Z,45.75
2022-12-31T11:50:38.349Z,45.74
2022-12-31T11:52:21.445Z,46.20
2022-12-31T11:53:30.446Z,46.46
2022-12-31T11:54:53.857Z,46.40
2022-12-31T11:56:06.024Z,46.12
2022-12-31T11:57:22.089Z,45.87
2022-12-31T11:58:26.431Z,46.04
2022-12-31T11:59:28.886Z,46.35
2022-12-31T12:00:33.303Z,46.39
2022-12-31T12:02:01.905Z,46.38
2022-12-31T12:03:05.475Z,46.55
2022-12-31T12:04:09.945Z,46.42
2022-12-31T12:05:15.392Z,46.28
2022-12-31T12:06:21.246Z,46.40
2022-12-31T12:07:23.699Z,46.33
2022-12-31T12:08:26.929Z,45.49
2022-12-31T12:09:30.808Z,46.05
2022-12-31T12:10:46.778Z,46.34
2022-12-31T12:11:53.509Z,46.30
2022-12-31T12:12:57.974Z,46.15
2022-12-31T12:14:01.527Z,45.62
2022-12-31T12:15:10.466Z,45.76
2022-12-31T12:16:13.611Z,46.07
2022-12-31T12:18:49.393Z,46.23
2022-12-31T12:19:56.281Z,46.35
2022-12-31T12:21:16.790Z,46.26
2022-12-31T12:22:22.846Z,46.22
2022-12-31T12:23:25.866Z,45.86
2022-12-31T12:24:28.936Z,46.25
2022-12-31T12:25:41.935Z,46.08
2022-12-31T12:26:46.391Z,46.08
2022-12-31T12:27:52.122Z,46.04
2022-12-31T12:28:55.726Z,45.58
2022-12-31T12:29:59.608Z,45.65
2022-12-31T12:31:05.685Z,45.35
2022-12-31T12:32:25.217Z,45.57
2022-12-31T12:33:30.243Z,46.00
2022-12-31T12:34:35.209Z,45.93
2022-12-31T12:35:39.271Z,45.75
2022-12-31T12:36:47.907Z,46.17
2022-12-31T12:37:59.178Z,46.29
2022-12-31T12:39:04.789Z,46.40
2022-12-31T12:40:17.897Z,46.35
2022-12-31T12:41:24.689Z,46.33
2022-12-31T12:42:28.073Z,47.16
2022-12-31T12:43:36.268Z,47.27
2022-12-31T12:44:39.643Z,47.62
2022-12-31T12:45:51.468Z,47.69
2022-12-31T12:46:50.894Z,47.79
2022-12-31T12:49:28.831Z,47.97
2022-12-31T12:52:12.313Z,48.79
2022-12-31T12:55:24.892Z,48.46
2022-12-31T12:56:36.730Z,47.68
2022-12-31T12:57:42.943Z,47.99
2022-12-31T12:59:12.605Z,47.72
2022-12-31T13:00:20.694Z,47.84
2022-12-31T13:01:30.404Z,47.78
2022-12-31T13:02:40.136Z,47.63
2022-12-31T13:05:13.391Z,46.91
2022-12-31T13:06:25.503Z,46.93
2022-12-31T13:07:40.735Z,47.11
2022-12-31T13:09:05.181Z,46.81
2022-12-31T13:11:52.073Z,47.07
2022-12-31T13:13:23.463Z,46.91
2022-12-31T13:14:37.757Z,47.19
2022-12-31T13:15:52.391Z,47.44
2022-12-31T13:17:13.567Z,47.56
2022-12-31T13:19:44.029Z,47.66
2022-12-31T13:21:02.027Z,47.72
2022-12-31T13:22:06.768Z,47.82
2022-12-31T13:23:40.080Z,47.83
2022-12-31T13:24:56.699Z,47.92
2022-12-31T13:27:37.812Z,47.97
2022-12-31T13:28:42.315Z,48.02
2022-12-31T13:29:44.925Z,48.05
2022-12-31T13:30:49.632Z,48.07
2022-12-31T13:31:55.245Z,48.08
2022-12-31T13:33:18.630Z,48.09
2022-12-31T13:34:26.324Z,48.07
2022-12-31T13:35:31.992Z,48.06
2022-12-31T13:36:35.215Z,48.11
2022-12-31T13:37:40.180Z,48.12
2022-12-31T13:38:53.087Z,48.11
2022-12-31T13:40:03.029Z,48.10
2022-12-31T13:41:23.111Z,48.17
2022-12-31T13:42:47.092Z,48.20
2022-12-31T13:44:17.075Z,48.20
2022-12-31T13:45:29.838Z,48.33
2022-12-31T13:46:58.652Z,48.37
2022-12-31T13:49:26.893Z,47.57
2022-12-31T13:50:34.144Z,47.53
2022-12-31T13:51:45.822Z,47.26
2022-12-31T13:53:01.767Z,45.97
2022-12-31T13:54:17.795Z,46.39
2022-12-31T13:55:23.783Z,46.58
2022-12-31T13:56:29.004Z,46.62
2022-12-31T13:57:37.957Z,46.48
2022-12-31T13:59:58.964Z,46.24
2022-12-31T14:04:05.671Z,46.17
2022-12-31T14:05:32.617Z,46.23
2022-12-31T14:08:09.330Z,46.43
2022-12-31T14:09:18.915Z,46.71
2022-12-31T14:12:11.008Z,46.35
2022-12-31T14:13:37.210Z,46.48
2022-12-31T14:14:43.428Z,46.40
2022-12-31T14:16:13.087Z,46.46
2022-12-31T14:17:37.020Z,46.99
2022-12-31T14:20:38.442Z,46.79
2022-12-31T14:21:48.378Z,46.56
2022-12-31T14:23:06.561Z,46.46
2022-12-31T14:24:33.668Z,46.46
2022-12-31T14:26:02.244Z,46.50
2022-12-31T14:27:08.352Z,46.64
2022-12-31T14:28:14.472Z,46.99
2022-12-31T14:30:49.475Z,47.34
2022-12-31T14:31:58.729Z,48.18
2022-12-31T14:33:21.398Z,48.18
2022-12-31T14:34:52.975Z,48.38
2022-12-31T14:37:42.522Z,48.28
2022-12-31T14:38:58.515Z,48.35
2022-12-31T14:40:20.920Z,48.39
2022-12-31T14:41:31.639Z,48.42
2022-12-31T14:42:59.167Z,48.48
2022-12-31T14:45:47.748Z,47.76
2022-12-31T14:47:06.103Z,47.84
2022-12-31T14:48:33.406Z,47.79
2022-12-31T14:50:50.883Z,47.98
2022-12-31T14:51:53.050Z,48.08
2022-12-31T14:54:29.080Z,48.07
2022-12-31T14:56:51.637Z,47.99
2022-12-31T14:59:01.197Z,47.85
2022-12-31T15:00:31.147Z,47.53
2022-12-31T15:02:51.288Z,47.88
2022-12-31T15:03:57.366Z,48.22
2022-12-31T15:05:15.601Z,48.42
2022-12-31T15:06:39.042Z,48.60
2022-12-31T15:09:19.481Z,48.66
2022-12-31T15:10:38.014Z,48.76
2022-12-31T15:13:22.643Z,48.96
2022-12-31T15:14:47.111Z,49.06
2022-12-31T15:16:10.755Z,49.14
2022-12-31T15:17:24.180Z,49.32
2022-12-31T15:19:58.639Z,49.45
2022-12-31T15:22:37.191Z,49.61
2022-12-31T15:23:41.572Z,49.60
2022-12-31T15:24:46.145Z,49.72
2022-12-31T15:25:50.973Z,49.69
2022-12-31T15:26:59.351Z,49.82
2022-12-31T15:28:03.260Z,49.84
2022-12-31T15:29:07.512Z,49.89
2022-12-31T15:30:32.702Z,49.92
2022-12-31T15:31:36.257Z,49.92
2022-12-31T15:32:42.663Z,49.86
2022-12-31T15:33:57.254Z,49.91
2022-12-31T15:36:21.134Z,49.84
2022-12-31T15:37:34.644Z,49.92
2022-12-31T15:38:38.225Z,49.89
2022-12-31T15:39:43.793Z,49.92
2022-12-31T15:40:48.177Z,49.89
2022-12-31T15:42:27.622Z,49.95
2022-12-31T15:44:38.874Z,49.91
2022-12-31T15:45:41.341Z,49.85
2022-12-31T15:46:44.591Z,49.73
2022-12-31T15:47:49.259Z,49.72
2022-12-31T15:49:03.729Z,49.67
2022-12-31T15:51:21.619Z,49.53
2022-12-31T15:53:43.336Z,49.45
2022-12-31T15:54:50.239Z,49.40
2022-12-31T15:55:55.164Z,49.35
2022-12-31T15:56:58.670Z,49.34
2022-12-31T15:59:17.442Z,49.23
2022-12-31T16:00:23.284Z,49.27
2022-12-31T16:02:48.407Z,49.17
2022-12-31T16:03:57.546Z,49.12
2022-12-31T16:05:00.969Z,49.08
2022-12-31T16:06:12.132Z,49.05
2022-12-31T16:07:16.140Z,49.04
2022-12-31T16:08:24.091Z,49.17
2022-12-31T16:09:28.649Z,49.23
2022-12-31T16:10:31.412Z,49.22
2022-12-31T16:12:48.866Z,48.16
2022-12-31T16:13:54.059Z,48.28
2022-12-31T16:14:57.021Z,47.86
2022-12-31T16:17:29.914Z,46.28
2022-12-31T16:19:54.914Z,47.55
2022-12-31T16:20:57.336Z,45.75
2022-12-31T16:22:09.347Z,43.91
2022-12-31T16:24:37.487Z,45.63
2022-12-31T16:25:40.515Z,43.10
2022-12-31T16:26:45.873Z,44.92
2022-12-31T16:27:49.255Z,43.22
2022-12-31T16:28:53.646Z,44.82
2022-12-31T16:30:06.522Z,43.06
2022-12-31T16:31:12.978Z,44.34
2022-12-31T16:32:19.778Z,44.60
2022-12-31T16:33:26.476Z,43.85
2022-12-31T16:34:29.389Z,43.22
2022-12-31T16:35:34.533Z,43.96
2022-12-31T16:36:37.930Z,42.84
2022-12-31T16:37:40.705Z,43.21
2022-12-31T16:38:43.859Z,42.27
2022-12-31T16:40:02.952Z,42.73
2022-12-31T16:41:19.232Z,42.83
2022-12-31T16:43:41.047Z,42.27
2022-12-31T16:44:43.351Z,42.49
2022-12-31T16:45:47.418Z,42.93
2022-12-31T16:46:50.084Z,43.62
2022-12-31T16:47:54.086Z,42.77
2022-12-31T16:48:59.576Z,43.78
2022-12-31T16:50:08.397Z,42.55
2022-12-31T16:51:14.597Z,43.00
2022-12-31T16:52:30.574Z,43.02
2022-12-31T16:53:35.832Z,43.80
2022-12-31T16:54:39.455Z,43.48